Airfield :
LOGIN :

Register | Disclaimer

   EN    FR    IT 

 










Legend :    VFR   Marginal VFR   IFR   Intensive IFR   Very Intensive IFR
Visi :
Ceiling :
>= 8 km
>= 3000ft
5 to 8 km
1000 to 3000 ft
1500m to 5 km
500 to 1000 ft
800 to 1500m
200 to 500 ft
< 800m
< 200 ft
Symbols :   Thunderstorms  Fog  Heavy snow  Heavy precipitations  Wind > 20 kt
SIGMETs :     Misc.  Thunderstorms  Icing  Turbulence  Mountain Waves  Volcanic Ashes






- Airport Elevation : 645 ft
- IATA code : DLE


LFGJ - Dole Tavaux

CURRENT METAR :
  • 221430Z AUTO 11006KT 9000 -RA FEW007/// BKN034/// BKN046/// ///TCU 09/08 Q0992 TEMPO 33015G27KT 4000 RA BKN014

EXPIRED METARs :
  • 221400Z AUTO 09003KT 9999 -RA FEW007/// BKN043/// BKN049/// ///TCU 09/08 Q0992 TEMPO 4000 RA BECMG 33015KT FEW020 BKN040
  • 221330Z AUTO 00000KT 9999 -RA FEW023/// OVC058/// ///CB 09/08 Q0992 TEMPO 4000 RA BECMG 33015KT FEW020 BKN040
  • 221300Z AUTO 21004KT 8000 -RA SCT018/// SCT026/// BKN039/// ///CB 09/08 Q0993 TEMPO 20015G25KT 4000 RA BKN014
  • 221230Z AUTO 23007KT 9000 RA BKN020/// BKN025/// BKN033/// ///TCU 09/08 Q0993 TEMPO 20015G25KT 4000 RA BKN014
  • 221200Z AUTO 21009KT 7000 RA SCT021/// SCT026/// BKN033/// ///TCU 09/08 Q0994 TEMPO 20015G25KT 4000 RA BKN014

TAF TAF LFGJ
Valid from the 22 at 15:00 until the 23 at 00:00 UTC


221400Z 2215/2224 24005KT 9999 FEW020 BKN040
BECMG 2215/2217 33012KT
PROB40
TEMPO 2215/2219 33015G27KT 4000 RA BKN014
BECMG 2219/2222 23006KT



MET'MAP, your aeronautical weather chart ! - Copyright ORBIFLY December 2007 - Disclaimer

ORBIFLY MET'MAP TEAM :

Programming & Development : Alexandra Zaïnal
Concept & original design : Baudouin d'Aumeries
Assistance for programming : Marc-Olivier Méhu
Technical & hardware support : Manuel Goepfert

Contact : metmap@orbifly.com




SOURCES & CREDITS :

   NOAA